Date,TemperatureHighF,TemperatureAvgF,TemperatureLowF,DewpointHighF,DewpointAvgF,DewpointLowF,HumidityHigh,HumidityAvg,HumidityLow,PressureMaxIn,PressureMinIn,WindSpeedMaxMPH,WindSpeedAvgMPH,GustSpeedMaxMPH,PrecipitationSumIn
2013-1-1,57.4,54.7,52.2,52.0,48.3,44.5,92,79,70,29.99,29.69,7,3,12,0.01
2013-1-2,54.1,51.1,44.1,52.5,47.9,39.8,94,89,78,30.02,29.62,9,3,13,0.13
2013-1-3,44.1,42.0,34.9,41.9,38.3,30.8,92,87,79,30.11,29.92,6,2,9,0.08
2013-1-4,56.1,41.5,34.5,34.2,31.1,26.6,86,70,33,30.10,29.76,8,2,14,0.00
2013-1-5,55.9,40.3,25.5,35.3,28.6,20.4,86,66,31,30.01,29.84,7,1,10,0.00
2013-1-6,51.4,47.2,39.9,43.9,40.9,35.5,87,79,64,29.88,29.60,5,1,9,0.01
2013-1-7,59.0,47.4,36.9,43.8,37.0,30.6,90,70,38,30.02,29.69,11,4,18,0.00
2013-1-8,66.9,47.7,35.8,52.5,40.9,29.5,91,78,58,30.02,29.86,8,2,11,0.00
2013-1-9,74.3,57.9,43.5,57.6,50.8,41.4,94,79,53,29.94,29.73,8,1,12,0.00
2013-1-10,69.4,58.3,51.1,54.0,47.3,37.1,93,69,46,30.02,29.75,14,4,23,0.00
2013-1-11,75.6,60.9,46.8,68.5,55.9,39.9,91,84,70,29.89,29.62,8,2,11,0.18
2013-1-12,81.3,68.1,60.8,64.8,60.6,56.8,94,78,49,29.71,29.50,7,2,12,0.00
2013-1-13,80.6,65.3,55.0,64.2,58.6,52.5,94,80,53,29.70,29.51,8,2,12,0.00
2013-1-14,80.6,67.7,54.9,65.6,59.9,52.3,93,77,51,29.72,29.51,11,3,15,0.01
2013-1-15,78.8,62.3,53.8,67.4,57.4,51.5,95,85,57,29.69,29.42,8,3,12,0.00
2013-1-16,80.4,67.8,58.6,66.5,60.5,54.8,95,79,53,29.57,29.38,13,3,24,0.00
2013-1-17,81.0,63.7,43.3,63.4,56.9,40.0,92,81,48,29.51,29.16,14,4,21,1.04
2013-1-18,53.2,43.2,35.4,40.2,32.0,24.3,91,68,33,30.04,29.45,13,4,22,0.02
2013-1-19,64.9,45.1,31.6,42.0,32.8,23.8,90,65,35,30.07,29.69,6,2,8,0.00
2013-1-20,70.5,52.3,39.4,46.3,38.5,29.9,92,66,23,29.75,29.48,11,2,17,0.00
2013-1-21,68.2,50.9,33.1,46.7,39.1,29.9,93,67,37,29.66,29.42,9,2,21,0.00
2013-1-22,52.2,42.7,29.3,35.5,19.1,10.2,68,40,23,29.84,29.42,12,4,16,0.00
2013-1-23,48.4,35.0,24.8,23.6,11.9,0.7,65,40,21,29.97,29.59,8,2,12,0.00
2013-1-24,51.3,40.1,25.5,40.0,21.2,-0.4,77,49,27,30.02,29.47,14,6,28,0.00
2013-1-25,40.1,30.6,21.9,31.7,19.6,3.5,90,65,38,30.05,29.56,8,3,13,0.06
2013-1-26,51.4,38.1,29.7,37.3,30.7,26.6,88,75,56,29.94,29.51,9,2,12,0.01
2013-1-27,49.5,36.1,27.0,30.4,26.3,22.8,91,70,40,30.13,29.81,11,3,15,0.00
2013-1-28,62.4,46.8,33.4,49.8,39.2,24.0,93,75,62,30.08,29.69,5,2,9,0.00
2013-1-29,80.1,62.9,50.5,60.8,55.6,49.2,96,80,46,29.84,29.62,9,3,15,0.00
2013-1-30,78.8,69.2,59.4,63.8,62.1,57.5,95,79,59,29.65,29.07,21,6,29,0.00
2013-1-31,72.0,54.6,43.5,65.7,36.6,21.7,88,54,24,29.64,28.95,17,8,34,0.17
2013-2-1,58.5,44.6,25.5,30.3,19.8,3.0,55,38,21,29.90,29.57,15,6,29,0.00
2013-2-2,52.2,37.9,21.0,41.4,22.3,7.7,79,54,37,30.00,29.60,8,2,12,0.00
2013-2-3,59.5,45.9,34.2,40.8,32.8,24.4,87,64,27,29.60,29.31,14,3,23,0.00
2013-2-4,52.9,40.7,27.1,35.2,28.2,20.3,85,63,33,29.73,29.47,7,1,10,0.00
2013-2-5,70.7,54.0,36.7,47.6,38.9,30.4,89,62,23,29.65,29.42,11,3,17,0.00
2013-2-6,72.5,54.9,43.5,50.5,43.4,36.5,93,70,29,29.74,29.48,8,2,12,0.00
2013-2-7,63.0,51.5,41.7,54.5,48.1,40.3,97,89,63,29.81,29.28,16,6,25,1.05
2013-2-8,63.0,55.1,48.0,55.8,47.9,38.7,97,78,56,29.55,29.09,17,7,25,0.40
2013-2-9,58.5,45.5,31.1,38.1,28.0,21.4,81,54,25,29.93,29.49,12,4,20,0.00
2013-2-10,59.7,45.4,29.5,51.3,36.8,21.6,89,73,50,30.04,29.71,9,3,14,0.00
2013-2-11,67.5,62.7,53.2,62.5,58.1,49.2,90,85,77,29.83,29.40,11,6,24,0.11
2013-2-12,69.4,58.8,51.6,58.8,51.0,40.0,93,77,36,29.66,29.39,8,3,17,0.20
2013-2-13,62.2,53.9,48.0,58.0,50.6,45.4,96,89,75,29.52,29.19,12,4,22,0.51
2013-2-14,56.3,48.1,40.5,47.3,39.4,35.2,90,73,51,29.67,29.31,9,2,13,0.00
2013-2-15,64.0,46.5,32.9,43.1,36.2,30.3,95,71,32,29.68,29.41,9,2,14,0.00
2013-2-16,55.4,41.4,34.5,42.3,36.0,31.0,96,82,60,29.50,29.26,15,4,21,0.18
2013-2-17,43.7,35.7,28.4,31.5,16.6,6.7,87,50,23,29.81,29.31,17,7,26,0.02
2013-2-18,54.0,36.6,20.8,25.8,19.9,13.6,77,54,25,30.02,29.75,7,2,11,0.00
2013-2-19,65.3,50.9,31.1,54.0,43.8,24.8,92,77,61,29.77,29.48,14,4,29,0.00
2013-2-20,62.1,49.0,36.5,44.1,30.6,17.9,90,56,20,29.71,29.48,8,3,14,0.00
2013-2-21,63.1,45.0,32.9,37.7,27.8,19.8,83,55,21,29.81,29.49,8,2,11,0.00
2013-2-22,52.5,46.6,40.6,50.8,39.0,27.6,95,75,59,29.91,29.52,12,5,20,0.18
2013-2-23,53.2,47.6,44.2,51.9,46.6,43.7,98,97,94,29.53,29.28,7,3,13,0.34
2013-2-24,68.7,53.2,42.6,49.9,46.2,40.1,99,80,44,29.52,29.25,10,3,14,0.01
2013-2-25,47.1,43.6,38.7,41.5,34.2,29.9,94,70,55,29.74,29.40,10,5,18,0.00
2013-2-26,69.1,57.7,43.0,65.8,54.0,33.3,97,88,68,29.53,29.07,16,7,29,0.97
2013-2-27,65.5,55.1,48.9,56.4,44.2,39.5,88,68,43,29.40,29.07,19,5,24,0.00
2013-2-28,62.2,49.8,36.9,43.9,36.5,29.4,85,63,35,29.42,29.15,13,4,19,0.00
2013-3-1,59.0,46.2,36.0,32.5,29.9,26.8,81,55,32,29.46,29.25,12,3,21,0.00
2013-3-2,56.3,41.4,30.6,33.4,28.5,25.9,85,63,34,29.47,29.27,7,2,13,0.00
2013-3-3,52.2,41.0,32.9,32.7,22.7,19.0,75,50,28,29.52,29.34,11,4,20,0.00
2013-3-4,54.0,39.7,29.7,21.9,17.2,11.8,64,43,21,29.65,29.33,15,4,23,0.00
2013-3-5,69.6,52.8,31.8,55.3,35.0,20.9,83,53,27,29.66,29.15,15,4,28,0.08
2013-3-6,61.7,51.3,42.6,55.8,34.0,21.6,84,54,30,29.43,28.91,22,11,36,0.02
2013-3-7,59.7,47.4,36.0,33.4,29.9,26.6,71,52,33,29.72,29.38,14,6,23,0.00
2013-3-8,58.1,46.2,33.3,30.3,26.2,21.5,70,48,26,29.82,29.61,19,5,27,0.00
2013-3-9,66.4,49.3,36.7,39.5,32.5,25.7,85,55,30,29.87,29.71,11,3,17,0.00
2013-3-10,66.7,49.5,31.5,41.0,30.0,19.0,89,56,17,29.89,29.70,11,3,18,0.00
2013-3-11,73.2,58.0,43.3,56.7,50.1,40.0,96,77,48,29.80,29.29,9,3,17,0.00
2013-3-12,72.5,63.7,56.1,63.9,59.0,54.1,95,85,64,29.45,29.27,11,3,19,0.53
2013-3-13,66.0,55.0,44.8,55.5,34.2,23.2,94,49,21,29.64,29.31,11,5,19,0.00
2013-3-14,56.1,45.0,34.5,28.4,21.5,16.6,66,41,23,29.81,29.49,14,5,23,0.00
2013-3-15,64.8,48.3,29.3,42.3,28.9,18.0,83,52,20,29.79,29.48,11,3,18,0.00
2013-3-16,82.4,66.1,54.9,50.6,47.1,42.1,66,52,27,29.50,29.16,14,7,24,0.00
2013-3-17,76.5,60.4,50.4,54.3,49.1,45.4,84,68,41,29.61,29.32,15,6,25,0.00
2013-3-18,69.3,55.1,47.7,54.3,48.6,43.3,94,80,57,29.67,29.32,9,3,17,0.00
2013-3-19,72.7,60.3,49.5,56.5,48.5,33.3,98,70,30,29.48,29.29,12,4,18,0.35
2013-3-20,62.8,51.4,39.0,36.3,25.1,15.2,80,38,20,29.67,29.29,8,3,14,0.00
2013-3-21,56.1,44.7,32.9,35.7,25.0,13.3,91,52,21,29.54,29.17,15,5,24,0.00
2013-3-22,56.1,42.2,30.4,32.3,18.4,10.7,69,40,21,29.67,29.47,8,3,14,0.00
2013-3-23,59.2,44.8,32.9,42.2,35.3,27.4,87,70,40,29.62,29.41,4,1,8,0.02
2013-3-24,58.6,49.0,41.4,57.5,46.8,38.1,99,92,79,29.46,28.94,22,6,34,0.81
2013-3-25,56.5,48.3,42.8,44.1,36.0,24.3,98,66,34,29.38,28.87,21,7,26,0.00
2013-3-26,56.3,44.8,34.7,31.8,27.8,23.8,68,52,31,29.53,29.30,11,5,18,0.00
2013-3-27,59.7,47.5,35.6,32.2,26.2,21.2,71,46,24,29.73,29.45,14,6,21,0.00
2013-3-28,60.3,46.4,32.4,32.2,25.0,20.0,70,46,24,29.80,29.53,13,4,24,0.00
2013-3-29,64.4,49.0,30.2,40.5,30.6,23.0,82,53,21,29.87,29.57,10,3,16,0.00
2013-3-30,66.0,54.4,45.5,49.2,43.5,39.2,91,68,40,29.80,29.51,8,2,12,0.04
2013-3-31,75.9,61.8,45.7,57.3,52.6,41.7,95,74,49,29.57,29.30,15,4,25,0.05
2013-4-1,76.1,64.7,54.0,63.8,56.9,50.2,92,77,46,29.44,29.24,10,4,16,0.06
2013-4-2,64.6,55.7,44.1,54.7,39.9,28.8,95,58,31,29.70,29.32,10,3,14,0.00
2013-4-3,62.4,52.0,43.3,45.5,38.4,26.8,90,63,28,29.78,29.49,11,3,17,0.00
2013-4-4,59.7,51.4,47.3,59.0,47.2,38.9,99,86,65,29.82,29.18,17,7,27,0.86
2013-4-5,59.7,49.9,43.2,58.6,46.3,41.8,99,88,65,29.53,29.18,11,4,19,0.01
2013-4-6,69.1,52.6,36.9,49.0,41.2,35.2,99,69,33,29.76,29.40,12,5,21,0.00
2013-4-7,73.4,56.0,37.0,57.3,47.5,33.7,95,75,54,29.81,29.52,8,2,14,0.00
2013-4-8,81.7,66.5,49.1,62.5,56.2,47.7,95,72,42,29.81,29.50,9,2,16,0.00
2013-4-9,86.4,70.7,55.0,66.1,60.2,53.1,95,72,44,29.82,29.47,8,3,14,0.00
2013-4-10,86.2,72.5,62.8,65.1,61.2,56.4,95,71,44,29.67,29.33,11,4,17,0.01
2013-4-11,84.6,73.2,64.0,68.8,64.9,60.6,94,77,49,29.53,29.19,13,4,21,0.01
2013-4-12,81.9,71.8,68.4,72.6,67.6,63.9,96,87,70,29.28,29.04,14,5,24,1.51
2013-4-13,73.4,64.8,50.9,67.0,54.4,45.1,93,71,44,29.49,29.12,11,4,17,0.00
2013-4-14,70.2,50.1,45.5,60.7,48.2,44.4,97,93,67,29.76,29.42,2,0,4,0.00
2013-4-15,74.3,66.0,59.9,62.2,59.7,55.6,93,80,66,29.68,29.42,13,4,17,0.52
2013-4-16,81.9,67.7,57.7,66.1,60.3,56.6,96,79,55,29.88,29.59,8,3,13,0.00
2013-4-17,83.7,68.2,54.0,65.8,59.7,52.6,95,77,52,29.90,29.56,7,2,10,0.00
2013-4-18,81.3,70.7,55.2,67.7,63.6,54.1,96,80,54,29.82,29.44,11,4,16,0.01
2013-4-19,82.8,73.6,68.2,73.1,68.3,65.1,93,84,68,29.46,29.22,12,4,27,0.63
2013-4-20,68.2,58.7,47.5,66.7,50.4,41.8,96,75,52,29.81,29.20,11,4,17,0.35
2013-4-21,67.8,54.6,42.1,49.6,43.4,37.3,95,68,46,29.95,29.72,18,7,31,0.00
2013-4-22,63.3,52.8,44.4,51.0,45.5,37.0,91,77,62,29.88,29.63,14,6,23,0.00
2013-4-23,70.7,58.1,51.4,53.9,51.0,49.0,94,79,52,29.79,29.53,10,4,19,0.01
2013-4-24,78.1,64.1,45.5,62.9,55.5,44.4,96,76,50,29.77,29.45,10,3,21,0.00
2013-4-25,80.1,66.2,53.4,63.3,59.0,49.7,87,78,53,29.76,29.45,11,4,18,0.01
2013-4-26,76.3,60.2,45.5,53.4,47.6,35.9,95,67,27,30.05,29.76,11,4,17,0.00
2013-4-27,77.9,63.6,51.8,54.0,47.7,38.3,92,61,27,29.99,29.73,11,4,19,0.00
2013-4-28,77.2,67.2,59.9,58.0,53.7,49.7,79,63,42,29.85,29.51,11,5,18,0.00
2013-4-29,75.9,66.7,63.3,66.5,61.8,58.0,95,85,69,29.59,29.33,8,2,16,0.90
2013-4-30,63.3,62.2,60.8,61.3,60.4,59.4,95,94,93,29.55,29.35,1,0,2,0.00
2013-5-1,77.0,65.4,58.8,64.2,60.2,56.1,95,84,60,29.79,29.58,8,4,14,0.13
2013-5-2,73.6,65.2,59.2,64.4,60.0,54.3,94,84,68,29.84,29.65,14,6,18,0.02
2013-5-3,69.3,61.4,55.4,60.9,53.7,45.4,93,77,55,29.83,29.59,17,7,23,0.02
2013-5-4,72.1,60.8,52.3,58.1,53.3,47.1,89,77,58,29.69,29.60,14,7,22,0.00
2013-5-5,73.4,63.7,54.1,63.3,58.1,51.2,92,83,67,29.74,29.46,14,7,24,0.02
2013-5-6,79.3,68.6,57.6,68.0,59.0,53.4,90,72,53,29.51,29.24,8,3,12,0.27
2013-5-7,77.2,63.5,51.4,55.9,52.0,47.5,94,69,40,29.58,29.33,8,2,18,0.00
2013-5-8,80.2,67.4,51.1,62.5,54.9,49.7,95,68,39,29.68,29.35,9,3,17,0.00
2013-5-9,86.2,73.9,59.9,63.7,59.4,55.9,90,63,37,29.59,29.44,8,3,15,0.00
2013-5-10,88.5,75.7,62.6,68.3,62.8,58.4,90,67,44,29.62,29.42,11,3,17,0.00
2013-5-11,86.2,76.7,71.6,71.1,65.5,60.6,84,69,45,29.46,29.26,11,5,19,0.00
2013-5-12,83.8,75.1,63.9,66.7,59.2,48.2,84,60,32,29.42,29.17,9,4,14,0.00
2013-5-13,73.8,63.5,48.9,49.9,41.3,32.5,73,46,23,29.63,29.38,14,4,20,0.00
2013-5-14,73.8,60.6,42.8,48.0,41.3,33.4,83,53,25,29.91,29.54,10,2,17,0.00
2013-5-15,86.0,70.7,52.5,62.1,56.2,48.0,90,62,42,29.75,29.32,12,4,20,0.00
2013-5-16,92.3,78.3,67.5,66.0,62.7,59.2,78,60,35,29.50,29.25,9,4,15,0.00
2013-5-17,92.5,79.4,68.4,68.5,63.9,59.6,85,61,37,29.61,29.33,7,3,14,0.17
2013-5-18,87.1,76.2,66.2,72.3,66.5,59.8,92,73,53,29.65,29.51,10,2,15,0.00
2013-5-19,86.5,75.1,66.6,72.6,67.9,65.0,95,80,55,29.65,29.46,9,2,17,0.00
2013-5-20,83.5,74.7,70.0,72.2,69.0,66.6,92,83,63,29.62,29.45,8,3,16,0.25
2013-5-21,86.2,75.8,70.0,72.7,69.0,66.3,94,80,57,29.52,29.37,7,2,14,0.00
2013-5-22,86.2,76.9,68.4,73.4,69.6,66.0,94,79,58,29.50,29.22,12,3,21,0.17
2013-5-23,86.4,76.5,70.3,73.8,70.0,67.8,95,81,61,29.41,29.20,9,2,17,0.27
2013-5-24,82.2,72.6,57.6,70.4,58.1,41.1,93,63,31,29.56,29.15,16,5,24,0.00
2013-5-25,78.3,63.5,48.6,48.6,41.7,33.7,74,48,24,29.89,29.53,9,3,15,0.01
2013-5-26,75.4,63.3,52.3,55.5,51.5,47.9,92,68,43,29.83,29.61,5,2,60,0.00
2013-5-27,82.6,67.9,48.2,60.3,53.9,46.5,95,65,39,29.81,29.54,8,2,13,0.01
2013-5-28,86.2,73.0,56.5,68.6,62.5,54.5,93,72,50,29.79,29.48,8,2,14,0.00
2013-5-29,86.5,75.3,62.1,71.5,64.8,60.3,96,72,45,29.83,29.58,8,2,14,0.00
2013-5-30,87.6,76.0,60.6,73.2,67.9,58.8,96,77,60,29.81,29.64,10,3,15,0.00
2013-5-31,88.2,77.5,65.1,75.0,69.8,64.0,96,78,56,29.84,29.56,11,2,14,0.00
2013-6-1,88.9,77.8,64.9,74.2,68.3,63.5,96,75,53,29.74,29.54,8,2,16,0.00
2013-6-2,88.0,80.7,67.1,73.0,69.3,65.3,94,70,55,29.57,29.42,9,4,14,0.00
2013-6-3,88.0,88.0,88.0,69.9,69.9,69.9,55,55,55,29.43,29.43,7,7,13,0.00
2013-6-4,88.0,88.0,88.0,69.9,69.9,69.9,55,55,55,29.43,29.43,7,7,13,0.00
2013-6-5,88.0,82.8,53.2,69.9,68.5,47.9,85,63,50,30.08,29.43,11,7,19,1.06
2013-6-6,81.7,76.8,73.8,74.6,72.0,69.0,94,85,73,29.84,29.63,9,3,16,0.34
2013-6-7,83.7,78.4,73.2,75.7,72.9,69.9,96,83,70,29.74,29.36,17,7,30,1.37
2013-6-8,89.8,84.5,76.8,76.2,72.8,71.4,92,69,56,29.91,29.62,11,5,20,0.11
2013-6-9,89.4,89.4,89.4,72.2,72.2,72.2,57,57,57,29.84,29.84,6,6,17,0.11
2013-6-10,89.4,89.4,89.4,72.2,72.2,72.2,57,57,57,29.84,29.84,6,6,17,0.11
2013-6-11,89.4,89.4,89.4,72.2,72.2,72.2,57,57,57,29.84,29.84,6,6,17,0.11
2013-6-12,89.4,75.5,48.7,75.3,64.4,34.6,91,69,51,30.35,29.84,6,4,17,0.15
2013-6-13,97.0,87.3,74.3,77.4,74.9,66.6,89,68,45,30.00,29.63,14,5,26,0.00
2013-6-14,84.9,75.8,65.8,69.6,62.5,57.7,92,66,44,30.10,29.66,10,4,17,0.35
2013-6-15,88.3,74.7,58.1,65.5,57.7,53.6,94,60,33,30.23,30.03,8,2,14,0.00
2013-6-16,89.8,77.6,64.2,68.0,63.6,60.6,91,64,42,30.26,29.99,8,3,15,0.00
2013-6-17,90.1,78.9,68.5,73.2,68.7,63.3,88,72,51,30.17,29.94,8,2,13,0.00
2013-6-18,92.3,80.9,73.2,76.0,72.5,68.8,93,77,52,30.06,29.77,10,3,21,0.05
2013-6-19,77.7,74.5,71.2,74.9,70.5,65.8,95,88,80,30.18,29.81,9,3,16,0.69
2013-6-20,87.4,75.2,65.1,69.9,64.1,57.0,94,71,45,30.34,30.12,11,5,20,0.00
2013-6-21,88.3,74.8,63.1,73.5,66.8,57.0,95,77,55,30.33,30.13,11,4,20,0.01
2013-6-22,84.6,76.6,71.1,79.1,72.4,69.3,96,87,68,30.27,30.09,10,3,17,0.70
2013-6-23,87.1,78.0,71.8,79.1,73.3,69.4,95,86,68,30.32,30.09,6,1,14,0.30
2013-6-24,87.6,77.8,73.6,79.2,73.5,70.6,95,87,67,30.30,30.09,7,2,14,0.48
2013-6-25,93.7,81.0,74.1,79.8,73.3,67.9,95,79,53,30.32,30.00,11,2,17,0.07
2013-6-26,93.4,81.9,70.5,75.0,72.7,66.4,92,75,50,30.09,29.92,9,4,18,0.20
2013-6-27,90.7,79.6,70.2,78.5,73.1,66.8,95,81,64,30.04,29.73,15,4,32,1.11
2013-6-28,91.8,83.0,73.8,77.9,76.0,72.3,95,80,61,29.91,29.62,11,5,18,0.05
2013-6-29,86.4,80.3,74.5,75.9,73.6,70.6,91,80,66,29.89,29.63,11,5,21,0.02
2013-6-30,87.8,78.7,73.4,78.5,74.2,69.7,95,86,64,29.99,29.77,11,3,20,1.07
2013-7-1,80.8,77.2,73.6,76.1,73.9,70.9,95,89,83,30.24,29.88,13,3,23,0.58
2013-7-2,88.5,80.9,74.3,78.4,74.6,70.4,93,82,68,30.26,29.98,11,4,22,0.01
2013-7-3,90.0,82.3,76.3,78.7,75.4,73.0,93,80,65,30.26,29.87,10,3,19,0.01
2013-7-4,90.1,82.4,76.5,75.8,74.2,72.8,89,77,61,30.32,30.17,9,3,17,0.00
2013-7-5,90.5,81.5,74.8,78.1,74.5,71.7,95,80,63,30.34,30.13,9,2,14,0.07
2013-7-6,90.1,81.3,71.1,78.2,72.5,69.3,95,76,56,30.32,30.10,8,2,14,0.00
2013-7-7,90.3,80.7,69.4,76.1,71.4,67.4,95,75,53,30.25,29.98,7,2,14,0.00
2013-7-8,91.9,81.0,71.1,75.6,71.8,68.7,94,75,51,30.25,30.06,8,2,14,0.00
2013-7-9,91.8,81.8,74.1,76.9,72.5,70.3,93,75,50,30.31,30.08,8,2,13,0.02
2013-7-10,93.0,81.8,74.3,77.1,72.6,69.3,89,75,48,30.24,29.97,8,2,16,0.21
2013-7-11,91.4,81.9,75.0,78.0,73.7,71.8,90,77,56,30.09,29.84,7,2,15,0.05
2013-7-12,80.2,74.7,71.6,74.1,72.0,68.3,96,91,77,30.13,29.89,9,1,16,2.47
2013-7-13,87.6,78.7,72.0,78.4,73.8,70.2,96,85,70,30.25,29.96,15,4,21,0.35
2013-7-14,90.9,79.9,53.1,76.6,73.8,47.7,90,82,62,30.24,29.90,10,3,16,0.00
2013-7-15,91.4,82.1,74.3,77.8,74.0,71.2,95,78,55,30.17,29.95,8,2,14,0.00
2013-7-16,96.3,82.3,71.2,77.1,72.1,69.5,95,74,47,30.17,29.96,7,1,9,0.00
2013-7-17,90.9,82.7,75.6,76.5,73.1,70.7,89,74,54,30.07,29.84,8,2,18,0.00
2013-7-18,94.8,83.6,71.6,76.7,72.5,69.2,95,71,45,30.07,29.89,6,2,14,0.00
2013-7-19,93.7,83.4,75.0,77.4,73.3,70.2,90,73,50,30.04,29.77,10,3,17,0.00
2013-7-20,91.9,82.4,76.1,77.3,72.6,69.7,87,73,52,30.00,29.70,11,4,21,0.13
2013-7-21,87.3,80.5,75.2,77.7,73.1,69.2,88,78,66,29.97,29.71,7,3,14,0.07
2013-7-22,92.7,83.1,75.4,77.2,74.3,72.5,93,76,55,29.91,29.62,10,3,17,0.00
2013-7-23,91.6,82.4,77.0,75.4,73.6,71.9,86,75,55,29.81,29.52,8,4,17,0.00
2013-7-24,93.6,82.2,75.4,77.7,73.9,71.2,90,77,53,29.74,29.51,6,2,12,0.06
2013-7-25,90.0,80.5,72.1,73.7,71.8,69.7,95,76,55,29.90,29.53,8,2,14,0.00
2013-7-26,89.1,78.6,68.9,73.2,69.8,66.8,94,76,55,29.94,29.75,6,2,12,0.00
2013-7-27,90.9,79.2,68.5,75.9,71.6,66.8,95,79,58,29.89,29.71,8,2,17,0.00
2013-7-28,90.5,81.3,73.2,78.4,73.6,66.2,95,79,51,29.89,29.73,7,2,14,0.01
2013-7-29,93.0,79.0,72.0,78.0,73.3,67.6,94,84,55,29.99,29.81,10,1,24,1.04
2013-7-30,90.3,78.5,71.2,76.9,72.5,69.1,96,83,60,30.13,29.89,6,1,11,0.13
2013-7-31,89.6,79.4,72.0,77.9,73.4,70.2,96,83,61,30.01,29.80,6,2,11,0.01
2013-8-1,87.6,77.7,72.3,76.2,73.3,69.9,96,87,64,29.83,29.68,8,2,14,0.96
2013-8-2,91.2,81.7,74.5,78.9,74.5,72.5,95,80,57,30.01,29.72,9,2,16,0.13
2013-8-3,93.6,83.6,76.6,78.6,75.2,72.1,94,77,53,29.99,29.83,8,2,14,0.00
2013-8-4,92.7,80.9,70.3,78.6,72.2,65.0,95,76,53,29.94,29.69,8,2,24,0.24
2013-8-5,88.3,76.6,63.7,70.4,63.6,60.0,94,67,44,30.06,29.81,8,2,13,0.00
2013-8-6,88.0,76.6,65.1,71.8,65.2,59.1,90,69,52,30.01,29.83,5,1,10,0.00
2013-8-7,90.0,79.0,67.5,73.8,70.0,65.6,94,76,55,30.06,29.82,8,2,14,0.00
2013-8-8,92.8,81.2,71.6,78.9,73.7,69.2,95,79,54,30.05,29.80,5,1,11,0.00
2013-8-9,93.2,83.6,76.6,78.5,74.9,71.8,94,76,54,30.03,29.84,8,3,14,0.06
2013-8-10,96.3,85.3,77.5,77.9,75.2,72.9,93,73,49,30.05,29.86,8,3,15,0.00
2013-8-11,96.6,83.8,77.0,77.8,75.2,73.1,90,77,48,30.03,29.81,9,3,16,0.63
2013-8-12,98.2,85.1,76.8,77.7,74.5,70.4,87,72,45,29.95,29.72,10,3,17,0.24
2013-8-13,76.8,76.8,76.8,72.4,72.4,72.4,86,86,86,29.88,29.88,0,0,0,0.24
2013-8-14,85.6,75.7,68.9,76.4,71.1,62.7,95,86,67,30.19,29.64,8,3,16,0.81
2013-8-15,72.0,67.0,64.0,68.0,63.7,62.0,96,89,78,30.21,29.90,8,3,14,0.78
2013-8-16,76.3,70.8,65.8,70.4,67.7,63.8,96,90,81,30.27,30.03,7,2,11,0.08
2013-8-17,69.3,69.1,69.1,67.5,67.3,67.3,94,94,94,30.13,30.11,4,4,8,0.00
2013-8-18,69.1,69.1,69.1,67.3,67.3,67.3,94,94,94,30.13,30.13,4,4,8,0.00
2013-8-19,69.1,69.1,69.1,67.3,67.3,67.3,94,94,94,30.13,30.13,4,4,8,0.00
2013-8-20,64.2,48.2,30.2,36.9,28.1,23.7,82,50,22,30.22,29.93,9,2,14,0.00
2013-8-21,88.3,69.4,48.7,76.1,61.1,34.0,91,75,45,30.15,29.90,6,2,12,0.04
2013-8-22,90.5,77.4,71.2,77.0,72.1,66.9,94,85,62,30.03,29.65,7,1,15,0.24
2013-8-23,93.2,81.2,72.3,76.5,72.8,70.1,96,78,52,29.91,29.76,9,2,14,0.02
2013-8-24,86.5,76.0,69.8,70.8,67.1,63.9,92,75,50,30.16,29.76,9,4,17,0.02
2013-8-25,85.6,73.9,64.4,66.0,63.5,61.0,89,72,48,30.17,30.02,10,4,17,0.00
2013-8-26,87.3,73.3,60.8,68.1,63.0,58.2,92,73,43,30.11,29.90,6,2,11,0.00
2013-8-27,89.6,75.6,62.4,70.2,64.1,60.6,95,70,43,29.92,29.80,6,2,14,0.00
2013-8-28,92.7,81.6,73.0,74.2,70.1,64.1,81,69,49,29.88,29.71,6,3,14,0.00
2013-8-29,81.5,81.3,74.5,72.1,72.0,47.9,86,73,73,30.14,29.86,4,4,9,0.01
2013-8-30,88.9,77.0,68.9,73.1,70.0,67.1,95,80,55,29.91,29.72,7,2,13,0.00
2013-8-31,92.3,79.6,68.2,78.4,72.2,66.7,96,80,54,29.88,29.69,7,2,14,0.00
2013-9-1,94.1,83.4,76.3,78.4,74.5,70.5,94,76,47,29.91,29.62,9,3,15,0.00
2013-9-2,93.6,84.4,79.5,79.2,75.9,74.1,88,76,56,29.81,29.60,8,4,16,0.02
2013-9-3,92.1,80.7,72.3,77.4,73.1,65.8,88,78,57,29.93,29.59,9,3,13,0.01
2013-9-4,91.2,79.4,69.3,74.5,71.0,66.9,94,77,51,29.99,29.68,5,2,12,0.00
2013-9-5,92.3,80.1,72.5,80.1,74.1,70.1,96,83,62,30.01,29.77,6,1,10,0.00
2013-9-6,92.7,77.8,67.8,74.8,69.3,64.0,93,77,45,29.99,29.79,7,3,14,0.07
2013-9-7,88.2,74.7,63.9,66.9,62.5,57.8,90,69,38,29.99,29.78,7,2,12,0.00
2013-9-8,90.3,75.5,61.2,72.5,66.6,59.1,95,76,47,29.88,29.74,6,1,11,0.00
2013-9-9,92.3,78.5,67.8,74.0,69.8,65.9,95,77,52,30.06,29.76,8,2,15,0.00
2013-9-10,93.9,78.9,68.0,74.5,69.4,65.5,95,75,46,30.18,29.92,8,2,14,0.00
2013-9-11,91.8,77.1,68.4,74.8,69.0,66.5,95,78,47,30.11,29.92,7,1,11,0.00
2013-9-12,93.6,78.6,66.2,74.7,68.8,64.4,95,74,45,29.95,29.63,7,2,14,0.00
2013-9-13,92.5,80.5,73.0,74.1,69.7,64.1,85,71,46,29.75,29.52,7,2,11,0.00
2013-9-14,83.5,74.0,66.7,65.3,63.4,58.5,89,71,53,29.99,29.57,8,3,15,0.00
2013-9-15,88.0,75.0,63.9,70.6,66.4,61.5,93,76,52,30.16,29.87,10,3,17,0.00
2013-9-16,93.2,76.7,66.9,77.3,70.2,65.2,95,82,49,30.05,29.85,8,1,14,0.08
2013-9-17,83.3,71.4,61.7,66.7,61.0,54.4,88,71,45,30.14,29.90,10,4,18,0.00
2013-9-18,82.6,66.6,55.8,63.3,57.2,52.0,87,73,50,30.13,29.95,7,3,13,0.00
2013-9-19,84.0,69.1,57.7,61.1,56.8,52.4,92,68,38,30.07,29.91,6,2,11,0.00
2013-9-20,73.9,68.2,60.1,65.2,61.1,56.2,90,79,63,29.99,29.81,8,1,11,0.00
2013-9-21,84.9,73.5,67.8,74.8,69.2,64.4,95,87,66,29.84,29.51,5,2,11,0.50
2013-9-22,78.1,73.0,68.2,72.7,68.7,63.5,94,86,74,29.73,29.44,10,3,16,0.44
2013-9-23,78.6,67.8,57.6,63.5,56.9,53.7,90,70,43,30.01,29.67,9,3,14,0.01
2013-9-24,80.6,65.3,52.3,58.5,55.0,49.5,91,72,45,30.06,29.73,8,1,12,0.00
2013-9-25,78.1,65.7,53.4,63.1,58.3,51.6,95,79,57,29.83,29.64,9,2,14,0.00
2013-9-26,81.7,70.4,62.8,63.0,60.3,58.6,91,72,48,29.86,29.66,9,3,18,0.04
2013-9-27,79.9,67.6,59.5,62.8,57.7,53.8,93,73,45,29.99,29.78,10,4,19,0.00
2013-9-28,79.5,69.3,62.1,61.6,58.7,56.4,85,70,50,30.05,29.89,11,4,15,0.00
2013-9-29,80.2,66.8,57.7,63.0,59.0,56.0,95,78,49,30.00,29.69,8,3,14,0.00
2013-9-30,81.9,67.4,56.1,59.0,55.1,49.8,94,69,35,30.00,29.80,7,2,12,0.00
2013-10-1,83.8,65.4,50.9,61.2,55.2,49.2,95,73,41,30.11,29.86,8,1,13,0.00
2013-10-2,89.8,69.9,55.2,65.6,59.4,53.5,96,73,41,30.05,29.86,5,1,10,0.02
2013-10-3,89.6,72.2,58.8,70.1,63.8,57.3,95,78,46,30.03,29.89,5,1,12,0.00
2013-10-4,90.0,73.8,61.5,73.8,65.6,59.8,96,78,45,30.05,29.90,5,1,11,0.00
2013-10-5,91.6,74.0,61.3,72.7,65.4,59.2,96,78,36,30.02,29.86,6,1,12,0.00
2013-10-6,90.0,74.1,64.9,76.7,69.3,63.6,96,86,57,29.93,29.77,7,2,14,0.00
2013-10-7,85.3,77.8,73.0,73.6,72.3,70.8,95,83,65,29.83,29.63,8,2,15,0.18
2013-10-8,73.2,64.5,59.0,71.4,62.4,57.3,95,93,86,29.91,29.66,11,6,23,0.99
2013-10-9,64.4,61.4,59.2,60.1,58.4,57.1,95,90,85,29.95,29.85,14,8,24,0.04
2013-10-10,61.3,60.6,58.5,59.3,57.9,56.9,95,91,86,29.89,29.77,11,6,19,0.17
2013-10-11,72.3,65.6,61.3,63.4,61.5,59.3,95,87,71,29.86,29.73,9,3,13,0.00
2013-10-12,69.6,65.9,63.7,64.5,62.4,60.6,94,89,80,29.89,29.75,7,3,11,0.00
2013-10-13,76.6,70.0,66.7,68.2,66.2,64.5,96,88,74,29.99,29.79,8,3,14,0.01
2013-10-14,76.8,70.5,65.3,67.6,65.4,60.9,93,84,72,30.04,29.81,11,5,17,0.00
2013-10-15,72.5,65.7,61.9,64.3,61.4,58.6,94,86,73,29.96,29.78,9,4,15,0.00
2013-10-16,74.7,68.9,62.8,66.5,64.3,59.5,95,86,73,29.89,29.74,5,2,10,0.01
2013-10-17,83.7,69.8,57.9,68.1,63.1,56.5,96,81,53,29.90,29.63,8,2,12,0.00
2013-10-18,81.9,71.9,66.9,69.7,67.1,64.7,95,85,64,29.88,29.73,7,2,11,0.06
2013-10-19,77.7,71.2,66.9,73.1,68.7,65.3,96,92,82,29.88,29.69,4,1,9,0.19
2013-10-20,73.8,64.8,56.1,65.3,55.6,51.3,88,73,47,29.93,29.67,9,3,14,0.00
2013-10-21,73.4,61.7,52.0,57.9,53.3,50.0,93,76,50,30.11,29.80,6,2,11,0.00
2013-10-22,69.1,63.0,57.6,60.7,56.4,52.1,92,79,65,29.91,29.62,3,1,5,0.02
2013-10-23,75.6,63.7,54.0,62.5,52.5,38.2,95,70,35,29.82,29.55,11,3,19,0.20
2013-10-24,65.3,51.8,41.7,41.6,37.6,32.2,90,61,32,30.18,29.82,10,3,13,0.00
2013-10-25,61.5,49.6,36.9,45.1,36.2,30.5,93,63,32,30.32,30.08,10,3,17,0.00
2013-10-26,68.4,48.3,33.1,43.9,36.2,29.7,90,67,34,30.29,30.02,8,2,12,0.00
2013-10-27,74.3,54.7,40.8,48.1,43.4,37.7,92,70,34,30.07,29.90,5,1,9,0.00
2013-10-28,75.0,58.3,45.1,61.7,50.8,43.1,95,79,52,30.25,30.03,4,1,7,0.00
2013-10-29,80.2,61.9,50.0,62.3,54.7,48.1,95,79,51,30.34,30.08,4,1,9,0.00
2013-10-30,81.7,62.8,50.2,64.7,55.7,48.8,96,80,45,30.31,30.03,6,1,10,0.00
2013-10-31,82.8,66.7,52.5,69.5,60.8,50.8,96,83,49,30.18,29.78,11,2,17,0.00
2013-11-1,81.5,74.9,68.7,70.8,68.5,65.6,93,81,67,29.77,29.49,13,5,22,0.09
2013-11-2,76.1,66.3,59.4,69.5,61.3,50.7,95,84,63,29.76,29.44,8,3,14,0.71
2013-11-3,67.1,55.6,45.5,50.4,43.3,38.6,84,66,36,30.22,29.74,10,3,17,0.00
2013-11-4,65.3,51.1,40.6,44.7,39.6,36.8,90,67,40,30.42,30.19,11,4,19,0.00
2013-11-5,77.7,59.7,43.3,60.1,51.4,38.7,91,75,52,30.36,30.19,13,5,22,0.00
2013-11-6,79.3,64.7,55.0,65.6,59.3,50.3,95,83,62,30.22,29.91,11,3,19,0.06
2013-11-7,75.7,67.4,56.5,67.2,63.0,46.4,96,86,66,29.91,29.74,11,2,17,0.24
2013-11-8,55.9,55.1,54.3,46.7,46.5,45.9,73,72,71,29.87,29.86,5,5,8,0.00
2013-11-9,69.4,56.2,33.1,49.3,45.6,29.9,92,70,43,30.38,30.14,5,1,8,0.00
2013-11-10,73.8,57.7,47.3,52.7,45.8,39.8,93,69,32,30.14,29.99,7,1,11,0.00
2013-11-11,67.5,51.7,39.7,45.6,39.6,34.6,92,66,42,30.27,30.03,8,2,15,0.00
2013-11-12,71.1,51.7,37.0,50.5,38.4,25.6,95,65,33,30.31,29.88,14,4,29,0.00
2013-11-13,49.1,37.4,26.2,30.2,21.4,14.1,87,56,27,30.43,30.21,11,4,24,0.00
2013-11-14,61.9,40.6,23.4,32.2,24.1,18.7,87,59,21,30.45,30.11,6,1,11,0.00
2013-11-15,73.2,54.1,34.9,59.6,46.8,30.8,91,78,47,30.33,30.08,8,2,14,0.00
2013-11-16,81.0,66.1,59.0,67.5,59.5,56.8,95,81,50,30.14,29.97,8,1,12,0.01
2013-11-17,82.8,66.0,55.2,67.9,61.6,53.8,96,87,56,30.10,29.73,6,2,12,0.13
2013-11-18,85.6,73.7,61.3,71.2,66.6,47.3,93,79,56,29.73,29.53,11,4,18,0.00
2013-11-19,63.3,53.8,43.5,47.0,33.7,26.6,76,49,26,30.19,29.67,14,4,19,0.00
2013-11-20,61.2,49.3,40.1,46.9,40.6,34.4,88,73,54,30.30,30.11,9,4,15,0.00
2013-11-21,74.7,58.2,46.4,61.3,52.1,43.0,94,81,59,30.36,30.21,9,4,14,0.00
2013-11-22,79.7,64.7,54.9,65.1,59.2,53.2,96,83,57,30.28,29.93,5,2,9,0.00
2013-11-23,66.6,62.0,52.0,63.1,57.4,39.0,92,85,61,30.00,29.90,6,3,11,0.09
2013-11-24,52.0,39.8,26.6,38.1,14.9,3.3,59,37,22,30.46,29.95,17,5,24,0.00
2013-11-25,51.3,35.6,23.9,29.3,16.3,4.4,75,47,24,30.50,30.18,8,2,11,0.00
2013-11-26,72.3,56.9,36.5,69.1,53.5,29.3,94,88,72,30.22,29.50,10,4,24,0.78
2013-11-27,72.1,55.3,34.5,67.8,51.2,22.9,93,86,61,30.11,29.33,15,6,27,0.54
2013-11-28,51.8,36.4,29.1,27.4,23.1,17.4,86,61,31,30.43,30.06,8,3,17,0.00
2013-11-29,57.2,41.6,29.3,32.3,28.4,24.2,86,63,31,30.52,30.35,7,2,14,0.00
2013-11-30,59.9,46.0,32.9,43.9,36.7,26.5,84,71,54,30.48,30.19,8,3,14,0.00
2013-12-1,57.9,50.5,43.9,50.8,45.8,40.6,94,84,75,30.22,29.88,4,1,7,0.00
2013-12-2,58.8,50.5,41.7,50.6,46.8,38.7,96,88,66,29.94,29.74,6,2,10,0.00
2013-12-3,67.3,51.1,35.8,53.0,43.6,33.1,96,78,46,29.96,29.62,4,1,9,0.00
2013-12-4,75.4,61.8,54.9,69.7,58.0,52.5,95,88,68,30.04,29.83,6,1,11,0.26
2013-12-5,79.3,65.5,51.8,70.3,59.3,50.1,96,82,54,30.12,29.93,8,2,12,0.01
2013-12-6,80.2,73.0,69.4,71.3,67.2,65.8,90,82,66,30.04,29.82,13,5,21,0.00
2013-12-7,74.1,58.5,42.8,68.2,54.8,40.1,94,88,75,30.34,29.83,10,5,19,0.19
2013-12-8,44.8,42.6,41.2,41.7,40.7,39.3,96,93,89,30.40,30.26,10,4,14,0.01
2013-12-9,71.4,52.5,42.3,64.6,50.4,41.2,97,93,79,30.26,29.83,4,1,10,0.02
2013-12-10,74.8,59.5,40.3,66.4,55.5,35.8,95,87,75,30.28,29.78,14,4,24,0.05
2013-12-11,57.7,40.8,27.1,35.5,27.1,20.8,87,63,27,30.56,30.28,6,1,11,0.00
2013-12-12,51.6,39.7,27.7,31.3,26.2,19.5,86,62,29,30.41,30.20,11,3,18,0.00
2013-12-13,57.9,38.7,23.9,34.2,25.0,18.6,87,63,24,30.55,30.29,7,1,11,0.00
2013-12-14,69.4,56.5,37.0,67.0,50.6,30.8,92,81,72,30.49,29.69,14,4,23,0.45
2013-12-15,67.3,55.7,40.6,64.1,50.4,35.3,92,82,67,30.07,29.60,11,4,22,0.07
2013-12-16,63.7,46.0,33.4,42.7,35.3,28.8,89,70,33,30.28,30.07,8,2,10,0.00
2013-12-17,69.3,54.1,37.8,45.0,40.3,35.1,91,63,34,30.27,29.99,11,4,17,0.00
2013-12-18,56.8,46.2,30.9,37.9,29.2,20.8,84,55,26,30.36,30.03,10,3,14,0.00
2013-12-19,68.2,45.7,28.0,42.6,30.9,23.0,90,63,22,30.49,30.31,6,1,11,0.00
2013-12-20,77.7,57.1,39.4,63.1,50.6,35.5,90,80,48,30.34,30.08,8,1,12,0.00
2013-12-21,78.3,63.9,51.1,69.7,59.2,48.6,95,86,67,30.23,29.97,8,1,13,0.01
2013-12-22,82.4,73.2,67.1,70.3,67.1,64.4,92,82,65,30.10,29.90,10,4,18,0.00
2013-12-23,76.6,71.4,59.4,70.5,66.7,56.6,91,85,77,30.00,29.82,11,5,18,0.20
2013-12-24,59.2,48.4,35.6,56.6,41.5,28.1,93,78,51,30.41,29.81,10,4,18,0.19
2013-12-25,49.6,38.5,28.8,31.6,24.9,17.4,75,58,44,30.63,30.34,9,4,14,0.00
2013-12-26,46.2,41.8,37.4,43.5,36.9,31.6,91,83,75,30.42,30.27,8,3,13,0.00
2013-12-27,58.3,43.2,31.8,37.6,32.0,26.9,87,67,32,30.52,30.25,9,2,12,0.00
2013-12-28,69.3,46.8,27.0,48.0,35.2,22.2,90,67,30,30.53,30.04,6,1,9,0.00
2013-12-29,70.2,64.6,52.2,66.4,59.7,48.0,91,84,76,30.04,29.70,14,5,26,0.20
2013-12-30,64.6,51.6,41.5,50.3,44.8,39.9,95,79,51,30.14,29.84,5,1,8,0.01
2013-12-31,57.9,48.0,37.8,45.3,38.8,29.7,91,73,34,30.37,30.10,9,2,16,0.00
2014-1-1,55.2,44.3,34.3,43.0,36.8,30.4,89,76,48,30.46,30.14,7,1,11,0.02
2014-1-2,59.7,51.2,46.4,57.5,48.8,42.7,94,92,87,30.14,29.55,14,2,30,0.73